sensor_id;sensor_type;location;lat;lon;timestamp;temperature;humidity
37340;DHT22;23223;51.006;7.610;2024-01-30T00:01:15;4.70;99.90
37340;DHT22;23223;51.006;7.610;2024-01-30T00:03:41;4.70;99.90
37340;DHT22;23223;51.006;7.610;2024-01-30T00:06:08;4.50;99.90
37340;DHT22;23223;51.006;7.610;2024-01-30T00:08:34;4.20;99.90
37340;DHT22;23223;51.006;7.610;2024-01-30T00:10:59;4.00;99.90
37340;DHT22;23223;51.006;7.610;2024-01-30T00:13:26;4.00;99.90
37340;DHT22;23223;51.006;7.610;2024-01-30T00:15:51;3.90;99.90
37340;DHT22;23223;51.006;7.610;2024-01-30T00:18:17;3.80;99.90
37340;DHT22;23223;51.006;7.610;2024-01-30T00:20:44;3.80;99.90
37340;DHT22;23223;51.006;7.610;2024-01-30T00:23:09;3.90;99.90
37340;DHT22;23223;51.006;7.610;2024-01-30T00:25:35;3.80;99.90
37340;DHT22;23223;51.006;7.610;2024-01-30T00:28:00;3.60;99.90
37340;DHT22;23223;51.006;7.610;2024-01-30T00:30:26;3.50;99.90
37340;DHT22;23223;51.006;7.610;2024-01-30T00:32:52;3.50;99.90
37340;DHT22;23223;51.006;7.610;2024-01-30T00:35:17;3.40;99.90
37340;DHT22;23223;51.006;7.610;2024-01-30T00:37:43;3.50;99.90
37340;DHT22;23223;51.006;7.610;2024-01-30T00:40:09;3.70;99.90
37340;DHT22;23223;51.006;7.610;2024-01-30T00:42:43;3.80;99.90
37340;DHT22;23223;51.006;7.610;2024-01-30T00:45:15;4.10;99.90
37340;DHT22;23223;51.006;7.610;2024-01-30T00:47:41;4.00;99.90
37340;DHT22;23223;51.006;7.610;2024-01-30T00:50:07;3.80;99.90
37340;DHT22;23223;51.006;7.610;2024-01-30T00:52:33;3.70;99.90
37340;DHT22;23223;51.006;7.610;2024-01-30T00:54:59;3.80;99.90
37340;DHT22;23223;51.006;7.610;2024-01-30T00:57:25;4.00;99.90
37340;DHT22;23223;51.006;7.610;2024-01-30T00:59:51;4.40;99.90
37340;DHT22;23223;51.006;7.610;2024-01-30T01:02:16;5.00;99.90
37340;DHT22;23223;51.006;7.610;2024-01-30T01:04:45;5.50;99.90
37340;DHT22;23223;51.006;7.610;2024-01-30T01:07:11;5.70;99.90
37340;DHT22;23223;51.006;7.610;2024-01-30T01:09:37;5.70;99.90
37340;DHT22;23223;51.006;7.610;2024-01-30T01:12:03;5.40;99.90
37340;DHT22;23223;51.006;7.610;2024-01-30T01:14:30;5.40;99.90
37340;DHT22;23223;51.006;7.610;2024-01-30T01:16:56;5.30;99.90
37340;DHT22;23223;51.006;7.610;2024-01-30T01:19:22;4.90;99.90
37340;DHT22;23223;51.006;7.610;2024-01-30T01:21:47;4.60;99.90
37340;DHT22;23223;51.006;7.610;2024-01-30T01:24:13;4.70;99.90
37340;DHT22;23223;51.006;7.610;2024-01-30T01:26:39;5.10;99.90
37340;DHT22;23223;51.006;7.610;2024-01-30T01:29:05;5.10;99.90
37340;DHT22;23223;51.006;7.610;2024-01-30T01:31:36;4.80;99.90
37340;DHT22;23223;51.006;7.610;2024-01-30T01:34:05;4.40;99.90
37340;DHT22;23223;51.006;7.610;2024-01-30T01:36:31;4.40;99.90
37340;DHT22;23223;51.006;7.610;2024-01-30T01:38:56;4.50;99.90
37340;DHT22;23223;51.006;7.610;2024-01-30T01:41:22;4.40;99.90
37340;DHT22;23223;51.006;7.610;2024-01-30T01:43:47;4.30;99.90
37340;DHT22;23223;51.006;7.610;2024-01-30T01:46:13;4.10;99.90
37340;DHT22;23223;51.006;7.610;2024-01-30T01:48:39;3.90;99.90
37340;DHT22;23223;51.006;7.610;2024-01-30T01:51:05;3.80;99.90
37340;DHT22;23223;51.006;7.610;2024-01-30T01:53:31;3.60;99.90
37340;DHT22;23223;51.006;7.610;2024-01-30T01:55:57;3.80;99.90
37340;DHT22;23223;51.006;7.610;2024-01-30T01:58:27;4.10;99.90
37340;DHT22;23223;51.006;7.610;2024-01-30T02:00:54;4.40;99.90
37340;DHT22;23223;51.006;7.610;2024-01-30T02:03:20;4.40;99.90
37340;DHT22;23223;51.006;7.610;2024-01-30T02:05:50;4.00;99.90
37340;DHT22;23223;51.006;7.610;2024-01-30T02:08:16;3.80;99.90
37340;DHT22;23223;51.006;7.610;2024-01-30T02:10:41;3.60;99.90
37340;DHT22;23223;51.006;7.610;2024-01-30T02:13:07;3.80;99.90
37340;DHT22;23223;51.006;7.610;2024-01-30T02:15:33;4.10;99.90
37340;DHT22;23223;51.006;7.610;2024-01-30T02:17:59;4.00;99.90
37340;DHT22;23223;51.006;7.610;2024-01-30T02:20:25;4.00;99.90
37340;DHT22;23223;51.006;7.610;2024-01-30T02:22:56;4.40;99.90
37340;DHT22;23223;51.006;7.610;2024-01-30T02:25:31;5.00;99.90
37340;DHT22;23223;51.006;7.610;2024-01-30T02:27:57;5.20;99.90
37340;DHT22;23223;51.006;7.610;2024-01-30T02:30:22;5.10;99.90
37340;DHT22;23223;51.006;7.610;2024-01-30T02:32:48;4.80;99.90
37340;DHT22;23223;51.006;7.610;2024-01-30T02:35:13;4.70;99.90
37340;DHT22;23223;51.006;7.610;2024-01-30T02:37:39;4.40;99.90
37340;DHT22;23223;51.006;7.610;2024-01-30T02:40:05;4.00;99.90
37340;DHT22;23223;51.006;7.610;2024-01-30T02:42:31;4.10;99.90
37340;DHT22;23223;51.006;7.610;2024-01-30T02:44:56;4.00;99.90
37340;DHT22;23223;51.006;7.610;2024-01-30T02:47:22;3.90;99.90
37340;DHT22;23223;51.006;7.610;2024-01-30T02:49:48;4.00;99.90
37340;DHT22;23223;51.006;7.610;2024-01-30T02:52:13;4.00;99.90
37340;DHT22;23223;51.006;7.610;2024-01-30T02:54:39;4.00;99.90
37340;DHT22;23223;51.006;7.610;2024-01-30T02:57:04;3.90;99.90
37340;DHT22;23223;51.006;7.610;2024-01-30T02:59:30;3.70;99.90
37340;DHT22;23223;51.006;7.610;2024-01-30T03:01:58;3.50;99.90
37340;DHT22;23223;51.006;7.610;2024-01-30T03:04:24;3.40;99.90
37340;DHT22;23223;51.006;7.610;2024-01-30T03:06:50;3.60;99.90
37340;DHT22;23223;51.006;7.610;2024-01-30T03:09:16;3.90;99.90
37340;DHT22;23223;51.006;7.610;2024-01-30T03:11:42;4.10;99.90
37340;DHT22;23223;51.006;7.610;2024-01-30T03:14:08;4.40;99.90
37340;DHT22;23223;51.006;7.610;2024-01-30T03:16:36;4.60;99.90
37340;DHT22;23223;51.006;7.610;2024-01-30T03:19:03;4.40;99.90
37340;DHT22;23223;51.006;7.610;2024-01-30T03:21:29;4.20;99.90
37340;DHT22;23223;51.006;7.610;2024-01-30T03:23:54;3.90;99.90
37340;DHT22;23223;51.006;7.610;2024-01-30T03:26:20;3.70;99.90
37340;DHT22;23223;51.006;7.610;2024-01-30T03:28:45;3.50;99.90
37340;DHT22;23223;51.006;7.610;2024-01-30T03:31:15;3.40;99.90
37340;DHT22;23223;51.006;7.610;2024-01-30T03:33:40;3.40;99.90
37340;DHT22;23223;51.006;7.610;2024-01-30T03:36:07;3.30;99.90
37340;DHT22;23223;51.006;7.610;2024-01-30T03:38:32;3.10;99.90
37340;DHT22;23223;51.006;7.610;2024-01-30T03:40:59;3.00;99.90
37340;DHT22;23223;51.006;7.610;2024-01-30T03:43:24;3.20;99.90
37340;DHT22;23223;51.006;7.610;2024-01-30T03:45:50;3.20;99.90
37340;DHT22;23223;51.006;7.610;2024-01-30T03:48:15;3.00;99.90
37340;DHT22;23223;51.006;7.610;2024-01-30T03:50:41;3.00;99.90
37340;DHT22;23223;51.006;7.610;2024-01-30T03:53:07;3.10;99.90
37340;DHT22;23223;51.006;7.610;2024-01-30T03:55:32;3.10;99.90
37340;DHT22;23223;51.006;7.610;2024-01-30T03:57:58;3.00;99.90
37340;DHT22;23223;51.006;7.610;2024-01-30T04:00:23;2.90;99.90
37340;DHT22;23223;51.006;7.610;2024-01-30T04:02:49;2.80;99.90
37340;DHT22;23223;51.006;7.610;2024-01-30T04:05:16;3.40;99.90
37340;DHT22;23223;51.006;7.610;2024-01-30T04:07:42;4.00;99.90
37340;DHT22;23223;51.006;7.610;2024-01-30T04:10:09;4.50;99.90
37340;DHT22;23223;51.006;7.610;2024-01-30T04:12:35;4.80;99.90
37340;DHT22;23223;51.006;7.610;2024-01-30T04:15:01;4.60;99.90
37340;DHT22;23223;51.006;7.610;2024-01-30T04:17:27;4.20;99.90
37340;DHT22;23223;51.006;7.610;2024-01-30T04:19:54;3.90;99.90
37340;DHT22;23223;51.006;7.610;2024-01-30T04:22:20;3.70;99.90
37340;DHT22;23223;51.006;7.610;2024-01-30T04:24:45;3.90;99.90
37340;DHT22;23223;51.006;7.610;2024-01-30T04:27:11;4.10;99.90
37340;DHT22;23223;51.006;7.610;2024-01-30T04:29:37;4.30;99.90
37340;DHT22;23223;51.006;7.610;2024-01-30T04:32:02;4.50;99.90
37340;DHT22;23223;51.006;7.610;2024-01-30T04:34:28;4.50;99.90
37340;DHT22;23223;51.006;7.610;2024-01-30T04:36:54;4.40;99.90
37340;DHT22;23223;51.006;7.610;2024-01-30T04:39:20;4.20;99.90
37340;DHT22;23223;51.006;7.610;2024-01-30T04:41:45;4.00;99.90
37340;DHT22;23223;51.006;7.610;2024-01-30T04:44:11;3.80;99.90
37340;DHT22;23223;51.006;7.610;2024-01-30T04:46:36;3.90;99.90
37340;DHT22;23223;51.006;7.610;2024-01-30T04:49:02;4.20;99.90
37340;DHT22;23223;51.006;7.610;2024-01-30T04:51:28;4.60;99.90
37340;DHT22;23223;51.006;7.610;2024-01-30T04:53:55;4.80;99.90
37340;DHT22;23223;51.006;7.610;2024-01-30T04:56:21;5.10;99.90
37340;DHT22;23223;51.006;7.610;2024-01-30T04:58:46;5.30;99.90
37340;DHT22;23223;51.006;7.610;2024-01-30T05:01:16;5.60;99.90
37340;DHT22;23223;51.006;7.610;2024-01-30T05:03:41;5.40;99.90
37340;DHT22;23223;51.006;7.610;2024-01-30T05:06:07;5.40;99.90
37340;DHT22;23223;51.006;7.610;2024-01-30T05:08:33;5.30;99.90
37340;DHT22;23223;51.006;7.610;2024-01-30T05:11:02;5.10;99.90
37340;DHT22;23223;51.006;7.610;2024-01-30T05:13:32;4.90;99.90
37340;DHT22;23223;51.006;7.610;2024-01-30T05:15:57;4.70;99.90
37340;DHT22;23223;51.006;7.610;2024-01-30T05:18:23;4.50;99.90
37340;DHT22;23223;51.006;7.610;2024-01-30T05:20:52;4.70;99.90
37340;DHT22;23223;51.006;7.610;2024-01-30T05:23:17;4.50;99.90
37340;DHT22;23223;51.006;7.610;2024-01-30T05:25:43;4.20;99.90
37340;DHT22;23223;51.006;7.610;2024-01-30T05:28:09;4.10;99.90
37340;DHT22;23223;51.006;7.610;2024-01-30T05:30:34;4.00;99.90
37340;DHT22;23223;51.006;7.610;2024-01-30T05:33:00;3.70;99.90
37340;DHT22;23223;51.006;7.610;2024-01-30T05:35:25;3.50;99.90
37340;DHT22;23223;51.006;7.610;2024-01-30T05:37:51;3.50;99.90
37340;DHT22;23223;51.006;7.610;2024-01-30T05:40:16;3.40;99.90
37340;DHT22;23223;51.006;7.610;2024-01-30T05:42:42;3.30;99.90
37340;DHT22;23223;51.006;7.610;2024-01-30T05:45:08;3.10;99.90
37340;DHT22;23223;51.006;7.610;2024-01-30T05:47:34;3.10;99.90
37340;DHT22;23223;51.006;7.610;2024-01-30T05:50:00;3.00;99.90
37340;DHT22;23223;51.006;7.610;2024-01-30T05:52:26;2.80;99.90
37340;DHT22;23223;51.006;7.610;2024-01-30T05:54:51;2.50;99.90
37340;DHT22;23223;51.006;7.610;2024-01-30T05:57:17;2.20;99.90
37340;DHT22;23223;51.006;7.610;2024-01-30T05:59:44;2.10;99.90
37340;DHT22;23223;51.006;7.610;2024-01-30T06:02:12;2.00;99.90
37340;DHT22;23223;51.006;7.610;2024-01-30T06:04:38;1.80;99.90
37340;DHT22;23223;51.006;7.610;2024-01-30T06:07:04;1.50;99.90
37340;DHT22;23223;51.006;7.610;2024-01-30T06:09:31;1.30;99.90
37340;DHT22;23223;51.006;7.610;2024-01-30T06:11:57;1.20;99.90
37340;DHT22;23223;51.006;7.610;2024-01-30T06:14:23;1.10;99.90
37340;DHT22;23223;51.006;7.610;2024-01-30T06:16:48;1.00;99.90
37340;DHT22;23223;51.006;7.610;2024-01-30T06:19:14;0.90;99.90
37340;DHT22;23223;51.006;7.610;2024-01-30T06:21:40;0.70;99.90
37340;DHT22;23223;51.006;7.610;2024-01-30T06:24:05;0.90;99.90
37340;DHT22;23223;51.006;7.610;2024-01-30T06:26:31;1.10;99.90
37340;DHT22;23223;51.006;7.610;2024-01-30T06:28:56;1.10;99.90
37340;DHT22;23223;51.006;7.610;2024-01-30T06:31:22;1.20;99.90
37340;DHT22;23223;51.006;7.610;2024-01-30T06:33:49;1.50;99.90
37340;DHT22;23223;51.006;7.610;2024-01-30T06:36:14;1.60;99.90
37340;DHT22;23223;51.006;7.610;2024-01-30T06:38:41;1.60;99.90
37340;DHT22;23223;51.006;7.610;2024-01-30T06:41:07;1.90;99.90
37340;DHT22;23223;51.006;7.610;2024-01-30T06:43:33;2.20;99.90
37340;DHT22;23223;51.006;7.610;2024-01-30T06:45:58;2.20;99.90
37340;DHT22;23223;51.006;7.610;2024-01-30T06:48:24;2.40;99.90
37340;DHT22;23223;51.006;7.610;2024-01-30T06:50:52;2.80;99.90
37340;DHT22;23223;51.006;7.610;2024-01-30T06:53:19;2.90;99.90
37340;DHT22;23223;51.006;7.610;2024-01-30T06:55:44;2.70;99.90
37340;DHT22;23223;51.006;7.610;2024-01-30T06:58:10;2.50;99.90
37340;DHT22;23223;51.006;7.610;2024-01-30T07:00:36;2.30;99.90
37340;DHT22;23223;51.006;7.610;2024-01-30T07:03:01;2.30;99.90
37340;DHT22;23223;51.006;7.610;2024-01-30T07:05:27;2.70;99.90
37340;DHT22;23223;51.006;7.610;2024-01-30T07:07:52;2.90;99.90
37340;DHT22;23223;51.006;7.610;2024-01-30T07:10:18;3.10;99.90
37340;DHT22;23223;51.006;7.610;2024-01-30T07:12:44;3.10;99.90
37340;DHT22;23223;51.006;7.610;2024-01-30T07:15:10;3.30;99.90
37340;DHT22;23223;51.006;7.610;2024-01-30T07:17:36;3.40;99.90
37340;DHT22;23223;51.006;7.610;2024-01-30T07:20:02;3.30;99.90
37340;DHT22;23223;51.006;7.610;2024-01-30T07:22:29;3.10;99.90
37340;DHT22;23223;51.006;7.610;2024-01-30T07:24:55;3.20;99.90
37340;DHT22;23223;51.006;7.610;2024-01-30T07:27:21;3.20;99.90
37340;DHT22;23223;51.006;7.610;2024-01-30T07:29:47;3.00;99.90
37340;DHT22;23223;51.006;7.610;2024-01-30T07:32:12;2.70;99.90
37340;DHT22;23223;51.006;7.610;2024-01-30T07:34:38;2.60;99.90
37340;DHT22;23223;51.006;7.610;2024-01-30T07:37:04;2.40;99.90
37340;DHT22;23223;51.006;7.610;2024-01-30T07:39:29;2.30;99.90
37340;DHT22;23223;51.006;7.610;2024-01-30T07:41:55;2.50;99.90
37340;DHT22;23223;51.006;7.610;2024-01-30T07:44:20;2.60;99.90
37340;DHT22;23223;51.006;7.610;2024-01-30T07:46:46;2.60;99.90
37340;DHT22;23223;51.006;7.610;2024-01-30T07:49:12;2.60;99.90
37340;DHT22;23223;51.006;7.610;2024-01-30T07:51:39;2.60;99.90
37340;DHT22;23223;51.006;7.610;2024-01-30T07:54:05;2.40;99.90
37340;DHT22;23223;51.006;7.610;2024-01-30T07:56:30;2.50;99.90
37340;DHT22;23223;51.006;7.610;2024-01-30T07:58:56;2.80;99.90
37340;DHT22;23223;51.006;7.610;2024-01-30T08:01:22;3.00;99.90
37340;DHT22;23223;51.006;7.610;2024-01-30T08:03:47;2.90;99.90
37340;DHT22;23223;51.006;7.610;2024-01-30T08:06:13;2.90;99.90
37340;DHT22;23223;51.006;7.610;2024-01-30T08:08:39;2.90;99.90
37340;DHT22;23223;51.006;7.610;2024-01-30T08:11:05;2.90;99.90
37340;DHT22;23223;51.006;7.610;2024-01-30T08:13:30;3.00;99.90
37340;DHT22;23223;51.006;7.610;2024-01-30T08:15:56;3.00;99.90
37340;DHT22;23223;51.006;7.610;2024-01-30T08:18:22;3.10;99.90
37340;DHT22;23223;51.006;7.610;2024-01-30T08:20:47;3.10;99.90
37340;DHT22;23223;51.006;7.610;2024-01-30T08:23:13;3.10;99.90
37340;DHT22;23223;51.006;7.610;2024-01-30T08:25:38;3.00;99.90
37340;DHT22;23223;51.006;7.610;2024-01-30T08:28:04;3.00;99.90
37340;DHT22;23223;51.006;7.610;2024-01-30T08:30:29;3.00;99.90
37340;DHT22;23223;51.006;7.610;2024-01-30T08:32:55;2.90;99.90
37340;DHT22;23223;51.006;7.610;2024-01-30T08:35:21;2.90;99.90
37340;DHT22;23223;51.006;7.610;2024-01-30T08:37:46;3.00;99.90
37340;DHT22;23223;51.006;7.610;2024-01-30T08:40:12;3.20;99.90
37340;DHT22;23223;51.006;7.610;2024-01-30T08:42:38;3.30;99.90
37340;DHT22;23223;51.006;7.610;2024-01-30T08:45:04;3.30;99.90
37340;DHT22;23223;51.006;7.610;2024-01-30T08:47:30;3.40;99.90
37340;DHT22;23223;51.006;7.610;2024-01-30T08:49:56;3.80;99.90
37340;DHT22;23223;51.006;7.610;2024-01-30T08:52:21;4.10;99.90
37340;DHT22;23223;51.006;7.610;2024-01-30T08:54:47;4.00;99.90
37340;DHT22;23223;51.006;7.610;2024-01-30T08:57:13;3.80;99.90
37340;DHT22;23223;51.006;7.610;2024-01-30T08:59:38;3.70;99.90
37340;DHT22;23223;51.006;7.610;2024-01-30T09:02:04;3.70;99.90
37340;DHT22;23223;51.006;7.610;2024-01-30T09:04:30;3.90;99.90
37340;DHT22;23223;51.006;7.610;2024-01-30T09:06:56;4.10;99.90
37340;DHT22;23223;51.006;7.610;2024-01-30T09:09:21;4.50;99.90
37340;DHT22;23223;51.006;7.610;2024-01-30T09:11:47;4.90;99.90
37340;DHT22;23223;51.006;7.610;2024-01-30T09:14:13;5.10;99.90
37340;DHT22;23223;51.006;7.610;2024-01-30T09:16:38;5.40;99.90
37340;DHT22;23223;51.006;7.610;2024-01-30T09:19:04;5.60;99.90
37340;DHT22;23223;51.006;7.610;2024-01-30T09:21:30;5.90;99.90
37340;DHT22;23223;51.006;7.610;2024-01-30T09:24:02;6.10;99.90
37340;DHT22;23223;51.006;7.610;2024-01-30T09:26:28;6.20;99.90
37340;DHT22;23223;51.006;7.610;2024-01-30T09:28:53;6.10;99.90
37340;DHT22;23223;51.006;7.610;2024-01-30T09:31:19;6.00;99.90
37340;DHT22;23223;51.006;7.610;2024-01-30T09:33:45;5.90;99.90
37340;DHT22;23223;51.006;7.610;2024-01-30T09:36:12;5.60;99.90
37340;DHT22;23223;51.006;7.610;2024-01-30T09:38:40;5.50;99.90
37340;DHT22;23223;51.006;7.610;2024-01-30T09:41:09;5.70;99.90
37340;DHT22;23223;51.006;7.610;2024-01-30T09:43:35;5.80;99.90
37340;DHT22;23223;51.006;7.610;2024-01-30T09:46:03;5.70;99.90
37340;DHT22;23223;51.006;7.610;2024-01-30T09:48:30;5.70;99.90
37340;DHT22;23223;51.006;7.610;2024-01-30T09:50:57;5.90;99.90
37340;DHT22;23223;51.006;7.610;2024-01-30T09:53:23;6.20;99.90
37340;DHT22;23223;51.006;7.610;2024-01-30T09:55:50;6.60;99.90
37340;DHT22;23223;51.006;7.610;2024-01-30T09:58:16;6.80;99.90
37340;DHT22;23223;51.006;7.610;2024-01-30T10:00:42;6.70;99.90
37340;DHT22;23223;51.006;7.610;2024-01-30T10:03:08;6.70;99.90
37340;DHT22;23223;51.006;7.610;2024-01-30T10:05:35;6.80;99.90
37340;DHT22;23223;51.006;7.610;2024-01-30T10:08:06;6.90;99.90
37340;DHT22;23223;51.006;7.610;2024-01-30T10:10:31;6.90;99.90
37340;DHT22;23223;51.006;7.610;2024-01-30T10:12:57;6.80;99.90
37340;DHT22;23223;51.006;7.610;2024-01-30T10:15:23;6.80;99.90
37340;DHT22;23223;51.006;7.610;2024-01-30T10:17:49;6.80;99.90
37340;DHT22;23223;51.006;7.610;2024-01-30T10:20:15;7.00;99.90
37340;DHT22;23223;51.006;7.610;2024-01-30T10:22:44;7.10;99.90
37340;DHT22;23223;51.006;7.610;2024-01-30T10:25:11;7.20;99.90
37340;DHT22;23223;51.006;7.610;2024-01-30T10:27:36;7.30;99.90
37340;DHT22;23223;51.006;7.610;2024-01-30T10:30:05;7.70;99.90
37340;DHT22;23223;51.006;7.610;2024-01-30T10:32:30;7.80;99.90
37340;DHT22;23223;51.006;7.610;2024-01-30T10:34:56;7.70;99.90
37340;DHT22;23223;51.006;7.610;2024-01-30T10:37:25;7.70;99.90
37340;DHT22;23223;51.006;7.610;2024-01-30T10:39:53;7.90;99.90
37340;DHT22;23223;51.006;7.610;2024-01-30T10:42:24;8.00;99.90
37340;DHT22;23223;51.006;7.610;2024-01-30T10:45:08;8.40;99.90
37340;DHT22;23223;51.006;7.610;2024-01-30T10:47:34;8.70;99.90
37340;DHT22;23223;51.006;7.610;2024-01-30T10:50:02;8.80;99.90
37340;DHT22;23223;51.006;7.610;2024-01-30T10:52:32;8.70;99.90
37340;DHT22;23223;51.006;7.610;2024-01-30T10:54:58;8.60;99.90
37340;DHT22;23223;51.006;7.610;2024-01-30T10:57:25;8.80;99.90
37340;DHT22;23223;51.006;7.610;2024-01-30T10:59:58;9.30;99.90
37340;DHT22;23223;51.006;7.610;2024-01-30T11:02:24;9.60;99.90
37340;DHT22;23223;51.006;7.610;2024-01-30T11:04:57;10.00;99.90
37340;DHT22;23223;51.006;7.610;2024-01-30T11:07:28;10.10;99.90
37340;DHT22;23223;51.006;7.610;2024-01-30T11:10:00;10.30;99.90
37340;DHT22;23223;51.006;7.610;2024-01-30T11:12:27;10.70;99.90
37340;DHT22;23223;51.006;7.610;2024-01-30T11:15:09;10.80;99.90
37340;DHT22;23223;51.006;7.610;2024-01-30T11:17:53;10.80;99.90
37340;DHT22;23223;51.006;7.610;2024-01-30T11:20:25;10.60;99.90
37340;DHT22;23223;51.006;7.610;2024-01-30T11:22:53;10.40;99.90
37340;DHT22;23223;51.006;7.610;2024-01-30T11:25:23;10.50;99.90
37340;DHT22;23223;51.006;7.610;2024-01-30T11:27:53;10.50;99.90
37340;DHT22;23223;51.006;7.610;2024-01-30T11:30:29;10.60;99.90
37340;DHT22;23223;51.006;7.610;2024-01-30T11:35:36;10.90;99.90
37340;DHT22;23223;51.006;7.610;2024-01-30T11:38:04;10.60;99.90
37340;DHT22;23223;51.006;7.610;2024-01-30T11:40:32;10.60;99.90
37340;DHT22;23223;51.006;7.610;2024-01-30T11:42:59;10.80;99.90
37340;DHT22;23223;51.006;7.610;2024-01-30T11:45:29;10.90;99.90
37340;DHT22;23223;51.006;7.610;2024-01-30T11:47:55;11.00;99.90
37340;DHT22;23223;51.006;7.610;2024-01-30T11:50:21;11.30;99.90
37340;DHT22;23223;51.006;7.610;2024-01-30T11:52:47;11.40;99.90
37340;DHT22;23223;51.006;7.610;2024-01-30T11:55:14;11.30;99.90
37340;DHT22;23223;51.006;7.610;2024-01-30T11:57:40;11.40;99.90
37340;DHT22;23223;51.006;7.610;2024-01-30T12:00:06;11.20;99.90
37340;DHT22;23223;51.006;7.610;2024-01-30T12:02:42;11.20;99.90
37340;DHT22;23223;51.006;7.610;2024-01-30T12:05:08;11.00;99.90
37340;DHT22;23223;51.006;7.610;2024-01-30T12:07:37;10.90;99.90
37340;DHT22;23223;51.006;7.610;2024-01-30T12:10:03;11.00;99.90
37340;DHT22;23223;51.006;7.610;2024-01-30T12:12:31;11.10;99.90
37340;DHT22;23223;51.006;7.610;2024-01-30T12:14:57;11.30;99.90
37340;DHT22;23223;51.006;7.610;2024-01-30T12:17:32;11.20;99.90
37340;DHT22;23223;51.006;7.610;2024-01-30T12:22:37;11.20;99.90
37340;DHT22;23223;51.006;7.610;2024-01-30T12:27:36;11.20;99.90
37340;DHT22;23223;51.006;7.610;2024-01-30T12:30:08;11.20;99.90
37340;DHT22;23223;51.006;7.610;2024-01-30T12:32:40;11.40;99.90
37340;DHT22;23223;51.006;7.610;2024-01-30T12:35:13;11.60;99.90
37340;DHT22;23223;51.006;7.610;2024-01-30T12:37:40;11.90;99.90
37340;DHT22;23223;51.006;7.610;2024-01-30T12:40:07;12.20;99.90
37340;DHT22;23223;51.006;7.610;2024-01-30T12:42:33;12.60;99.90
37340;DHT22;23223;51.006;7.610;2024-01-30T12:44:59;13.00;99.90
37340;DHT22;23223;51.006;7.610;2024-01-30T12:47:25;13.40;99.90
37340;DHT22;23223;51.006;7.610;2024-01-30T12:49:51;13.90;99.90
37340;DHT22;23223;51.006;7.610;2024-01-30T12:52:21;14.20;99.90
37340;DHT22;23223;51.006;7.610;2024-01-30T12:54:47;14.40;99.90
37340;DHT22;23223;51.006;7.610;2024-01-30T12:57:13;14.40;99.90
37340;DHT22;23223;51.006;7.610;2024-01-30T12:59:39;14.40;99.90
37340;DHT22;23223;51.006;7.610;2024-01-30T13:02:05;14.50;99.90
37340;DHT22;23223;51.006;7.610;2024-01-30T13:04:31;14.70;99.90
37340;DHT22;23223;51.006;7.610;2024-01-30T13:06:56;14.90;99.90
37340;DHT22;23223;51.006;7.610;2024-01-30T13:09:23;15.10;99.50
37340;DHT22;23223;51.006;7.610;2024-01-30T13:11:49;15.20;96.90
37340;DHT22;23223;51.006;7.610;2024-01-30T13:14:14;15.10;99.90
37340;DHT22;23223;51.006;7.610;2024-01-30T13:16:41;14.70;99.90
37340;DHT22;23223;51.006;7.610;2024-01-30T13:19:07;14.40;99.90
37340;DHT22;23223;51.006;7.610;2024-01-30T13:21:32;14.20;99.90
37340;DHT22;23223;51.006;7.610;2024-01-30T13:23:58;14.10;99.90
37340;DHT22;23223;51.006;7.610;2024-01-30T13:26:24;13.80;99.90
37340;DHT22;23223;51.006;7.610;2024-01-30T13:28:49;13.40;99.90
37340;DHT22;23223;51.006;7.610;2024-01-30T13:31:15;13.20;99.90
37340;DHT22;23223;51.006;7.610;2024-01-30T13:33:41;13.00;99.90
37340;DHT22;23223;51.006;7.610;2024-01-30T13:36:11;12.70;99.90
37340;DHT22;23223;51.006;7.610;2024-01-30T13:38:37;12.50;99.90
37340;DHT22;23223;51.006;7.610;2024-01-30T13:41:02;12.30;99.90
37340;DHT22;23223;51.006;7.610;2024-01-30T13:43:28;12.20;99.90
37340;DHT22;23223;51.006;7.610;2024-01-30T13:45:54;12.10;99.90
37340;DHT22;23223;51.006;7.610;2024-01-30T13:48:20;12.00;99.90
37340;DHT22;23223;51.006;7.610;2024-01-30T13:50:47;12.00;99.90
37340;DHT22;23223;51.006;7.610;2024-01-30T13:53:13;11.90;99.90
37340;DHT22;23223;51.006;7.610;2024-01-30T13:55:38;11.80;99.90
37340;DHT22;23223;51.006;7.610;2024-01-30T13:58:05;11.80;99.90
37340;DHT22;23223;51.006;7.610;2024-01-30T14:00:31;11.90;99.90
37340;DHT22;23223;51.006;7.610;2024-01-30T14:02:56;11.90;99.90
37340;DHT22;23223;51.006;7.610;2024-01-30T14:05:24;12.00;99.90
37340;DHT22;23223;51.006;7.610;2024-01-30T14:07:50;12.10;99.90
37340;DHT22;23223;51.006;7.610;2024-01-30T14:10:16;12.20;99.90
37340;DHT22;23223;51.006;7.610;2024-01-30T14:12:43;12.20;99.90
37340;DHT22;23223;51.006;7.610;2024-01-30T14:15:13;12.20;99.90
37340;DHT22;23223;51.006;7.610;2024-01-30T14:17:40;12.20;99.90
37340;DHT22;23223;51.006;7.610;2024-01-30T14:20:06;12.20;99.90
37340;DHT22;23223;51.006;7.610;2024-01-30T14:22:33;12.10;99.90
37340;DHT22;23223;51.006;7.610;2024-01-30T14:24:59;12.10;99.90
37340;DHT22;23223;51.006;7.610;2024-01-30T14:27:25;12.10;99.90
37340;DHT22;23223;51.006;7.610;2024-01-30T14:29:51;12.00;99.90
37340;DHT22;23223;51.006;7.610;2024-01-30T14:32:16;11.90;99.90
37340;DHT22;23223;51.006;7.610;2024-01-30T14:34:42;11.90;99.90
37340;DHT22;23223;51.006;7.610;2024-01-30T14:37:08;11.90;99.90
37340;DHT22;23223;51.006;7.610;2024-01-30T14:39:34;11.90;99.90
37340;DHT22;23223;51.006;7.610;2024-01-30T14:42:03;11.80;99.90
37340;DHT22;23223;51.006;7.610;2024-01-30T14:44:29;11.60;99.90
37340;DHT22;23223;51.006;7.610;2024-01-30T14:46:54;11.50;99.90
37340;DHT22;23223;51.006;7.610;2024-01-30T14:49:20;11.50;99.90
37340;DHT22;23223;51.006;7.610;2024-01-30T14:51:46;11.50;99.90
37340;DHT22;23223;51.006;7.610;2024-01-30T14:54:12;11.40;99.90
37340;DHT22;23223;51.006;7.610;2024-01-30T14:56:37;11.30;99.90
37340;DHT22;23223;51.006;7.610;2024-01-30T14:59:03;11.20;99.90
37340;DHT22;23223;51.006;7.610;2024-01-30T15:01:29;11.10;99.90
37340;DHT22;23223;51.006;7.610;2024-01-30T15:03:54;11.10;99.90
37340;DHT22;23223;51.006;7.610;2024-01-30T15:06:29;11.00;99.90
37340;DHT22;23223;51.006;7.610;2024-01-30T15:12:11;10.90;99.90
37340;DHT22;23223;51.006;7.610;2024-01-30T15:14:37;10.80;99.90
37340;DHT22;23223;51.006;7.610;2024-01-30T15:17:03;10.70;99.90
37340;DHT22;23223;51.006;7.610;2024-01-30T15:19:28;10.70;99.90
37340;DHT22;23223;51.006;7.610;2024-01-30T15:21:54;10.60;99.90
37340;DHT22;23223;51.006;7.610;2024-01-30T15:24:19;10.50;99.90
37340;DHT22;23223;51.006;7.610;2024-01-30T15:26:50;10.50;99.90
37340;DHT22;23223;51.006;7.610;2024-01-30T15:29:16;10.50;99.90
37340;DHT22;23223;51.006;7.610;2024-01-30T15:31:42;10.50;99.90
37340;DHT22;23223;51.006;7.610;2024-01-30T15:34:07;10.50;99.90
37340;DHT22;23223;51.006;7.610;2024-01-30T15:36:33;10.50;99.90
37340;DHT22;23223;51.006;7.610;2024-01-30T15:38:58;10.50;99.90
37340;DHT22;23223;51.006;7.610;2024-01-30T15:41:24;10.50;99.90
37340;DHT22;23223;51.006;7.610;2024-01-30T15:43:50;10.50;99.90
37340;DHT22;23223;51.006;7.610;2024-01-30T15:46:19;10.40;99.90
37340;DHT22;23223;51.006;7.610;2024-01-30T15:48:45;10.40;99.90